Mc Comb/Pike County/John E Lewis Field
KMCB : rendu visible

Aérodrome :











RETROUVEZ-NOUS SUR...

 
LOGIN :

S'inscrire | Disclaimer

   EN    FR    IT 

 









Légende :    VFR   VFR Marginal   IFR   IFR Intensif   IFR Très Intensif
Visi : 
Plafond : 
>= 8 km
>= 3000ft
5 à 8 km
1000 à 3000 ft
1500m à 5 km
500 à 1000 ft
800 à 1500m
200 à 500 ft
< 800m
< 200 ft
Symboles :   Orages  Brouillard  Fortes neiges  Fortes précipitations  Vent > 20 kt






- Altitude de l'aérodrome : 413 ft


KMCB - Mc Comb/Pike County/John E Lewis Field

DERNIER METAR :
  • 171853Z AUTO 12006KT 10SM OVC055 16/07 A3030 RMK AO2 SLP260 T01610067

METARs EXPIRÉS :
  • 171753Z AUTO 13006KT 10SM BKN050 16/06 A3034 RMK AO2 SLP272 T01560056 10161 20117 58017
  • 171741Z AUTO 11008KT 10SM FEW020 FEW029 BKN050 16/06 A3035 RMK AO2 T01610056
  • 171716Z AUTO 12006KT 10SM BKN020 BKN029 BKN036 16/05 A3037 RMK AO2 T01560050
  • 171653Z AUTO 09005KT 10SM OVC034 15/04 A3038 RMK AO2 SLP284 T01500044

TAF KMCB
Valide du 17 à 18h jusqu'au 18 à 18h UTC


171720Z 1718/1818 12005KT P6SM SCT080 OVC120
FM180600 14006KT P6SM VCSH SCT020 OVC035
FM181200 VRB04KT P6SM -SHRA SCT010 OVC015
FM181400 18005KT 3SM -SHRA BR SCT003 OVC010
FM181700 22005KT P6SM -SHRA OVC010



MET'MAP, la Météo Aéronautique d'un coup d'oeil ! - Copyright ORBIFLY Décembre 2007 - Disclaimer

ORBIFLY MET'MAP TEAM :

Programmation & Développement : Alexandra Zaïnal
Sur une idée originale de : Baudouin d'Aumeries
Assistance à la programmation : Marc-Olivier Méhu
Soutien technique & logistique : Manuel Goepfert

Contact : metmap@orbifly.com




SOURCES & CREDITS :

   NOAA       Earth
Advisory